Little Caillou, Louisiana
Current Conditions -  °F | °C
As of 12:35 AM on Wednesday 26 Nov 2014 (Local Time) from KHUM Reporting Station
Clear Clear  
Wind Chill: 37°   Ceiling: Unl
Heat Index: 41°   Visibility: 7mi
Dew Point: 34°   Wind: 6mph
Humidity: 76%   Direction: 320°NW
Pressure: 30.23"   Gusts: NA
Location:  29.4719°N, 90.6177°W
Report Text: KHUM 260635Z AUTO 32005KT 7SM CLR 05/01 A3023 RMK AO2 T00510012
Loading
Personal Weather Stations






























Interactive Weather Map New forecast layout! Learn more

10-Day Weather Forecast

Advertisements
Track Severe Weather on mobile